15AR weather

Taylor Airport
Brickeys, Arkansas, United States

Public forecast

Using degrees Fahrenheit for public forecast. Weather courtesy of forecast.io.

Closest aviation weather report (METAR) to Taylor Airport

Closest report is Tunica Municipal Airport, 13.0 nm (24.1 km) SE. Retrieved 2019/10/15 01:35 UTC (0 seconds ago):

KUTA 150135Z AUTO 11003KT 10SM 15/12 A3006 RMK AO2 TSNO

Closest aviation forecast (TAF) to Taylor Airport

Closest forecast is Memphis International Airport, 30.8 nm (57.0 km) ENE. Retrieved 2019-10-15 00:28 UTC (42 minutes ago):

TAF KMEM 142325Z 1500/1606 17004KT P6SM BKN250 FM151200 16004KT P6SM VCSH BKN025 BKN040 FM151600 18006KT P6SM SCT025 BKN035 FM152000 19008KT P6SM VCSH SCT025 OVC040 FM160400 VRB03KT 4SM -SHRA BR SCT007 BKN015